createdAt,value
2018-03-14T00:02:15.417Z,9.07
2018-03-14T00:04:46.382Z,9.06
2018-03-14T00:07:17.721Z,9.06
2018-03-14T00:09:49.151Z,9.05
2018-03-14T00:12:19.776Z,9.06
2018-03-14T00:14:50.490Z,9.00
2018-03-14T00:17:21.368Z,9.05
2018-03-14T00:19:52.120Z,9.03
2018-03-14T00:22:32.892Z,9.00
2018-03-14T00:25:02.140Z,8.99
2018-03-14T00:27:31.306Z,8.95
2018-03-14T00:30:00.433Z,8.93
2018-03-14T00:32:29.749Z,8.95
2018-03-14T00:34:59.072Z,8.95
2018-03-14T00:37:28.919Z,8.97
2018-03-14T00:39:59.581Z,8.98
2018-03-14T00:42:30.420Z,8.97
2018-03-14T00:45:01.768Z,8.96
2018-03-14T00:47:32.561Z,8.93
2018-03-14T00:50:03.493Z,8.96
2018-03-14T00:52:34.400Z,8.97
2018-03-14T00:55:04.932Z,8.98
2018-03-14T00:57:35.017Z,8.99
2018-03-14T01:00:05.504Z,8.98
2018-03-14T01:02:36.801Z,8.99
2018-03-14T01:07:51.199Z,8.99
2018-03-14T01:10:20.347Z,8.99
2018-03-14T01:12:49.807Z,8.97
2018-03-14T01:15:25.729Z,8.99
2018-03-14T01:17:54.827Z,8.97
2018-03-14T01:20:24.022Z,8.96
2018-03-14T01:22:53.182Z,8.96
2018-03-14T01:25:22.574Z,8.96
2018-03-14T01:27:51.756Z,8.96
2018-03-14T01:30:20.906Z,8.96
2018-03-14T01:32:50.729Z,8.95
2018-03-14T01:35:21.568Z,8.93
2018-03-14T01:37:52.345Z,8.93
2018-03-14T01:40:23.548Z,8.91
2018-03-14T01:42:54.366Z,8.89
2018-03-14T01:45:25.768Z,8.86
2018-03-14T01:47:55.998Z,8.87
2018-03-14T01:50:26.653Z,8.86
2018-03-14T01:53:08.259Z,8.85
2018-03-14T01:55:37.502Z,8.84
2018-03-14T01:58:06.688Z,8.83
2018-03-14T02:00:35.808Z,8.82
2018-03-14T02:03:05.034Z,8.82
2018-03-14T02:05:34.398Z,8.84
2018-03-14T02:08:03.592Z,8.86
2018-03-14T02:10:34.046Z,8.86
2018-03-14T02:13:04.668Z,8.84
2018-03-14T02:15:35.413Z,8.82
2018-03-14T02:18:06.719Z,8.83
2018-03-14T02:20:36.825Z,8.82
2018-03-14T02:23:07.452Z,8.79
2018-03-14T02:25:39.255Z,8.78
2018-03-14T02:28:09.777Z,8.75
2018-03-14T02:30:40.571Z,8.76
2018-03-14T02:33:11.074Z,8.70
2018-03-14T02:35:41.913Z,8.70
2018-03-14T02:38:12.484Z,8.70
2018-03-14T02:40:44.025Z,8.72
2018-03-14T02:43:14.649Z,8.75
2018-03-14T02:45:45.438Z,8.75
2018-03-14T02:48:19.630Z,8.77
2018-03-14T02:50:48.927Z,8.78
2018-03-14T02:53:18.033Z,8.79
2018-03-14T02:55:48.613Z,8.79
2018-03-14T02:58:19.396Z,8.79
2018-03-14T03:00:50.653Z,8.78
2018-03-14T03:03:21.567Z,8.78
2018-03-14T03:05:52.359Z,8.77
2018-03-14T03:08:23.728Z,8.77
2018-03-14T03:10:54.366Z,8.68
2018-03-14T03:13:25.754Z,8.74
2018-03-14T03:15:56.327Z,8.72
2018-03-14T03:18:27.704Z,8.74
2018-03-14T03:20:58.400Z,8.72
2018-03-14T03:23:29.490Z,8.72
2018-03-14T03:26:00.394Z,8.75
2018-03-14T03:28:31.407Z,8.77
2018-03-14T03:31:02.724Z,8.79
2018-03-14T03:33:33.396Z,8.80
2018-03-14T03:36:04.721Z,8.82
2018-03-14T03:38:35.536Z,8.82
2018-03-14T03:41:06.107Z,8.90
2018-03-14T03:43:36.738Z,8.86
2018-03-14T03:46:07.311Z,8.83
2018-03-14T03:48:38.809Z,8.84
2018-03-14T03:51:09.432Z,8.82
2018-03-14T03:53:40.470Z,8.83
2018-03-14T03:56:11.402Z,8.79
2018-03-14T03:58:41.337Z,8.74
2018-03-14T04:01:11.993Z,8.76
2018-03-14T04:03:42.976Z,8.71
2018-03-14T04:06:13.800Z,8.68
2018-03-14T04:08:44.768Z,8.66
2018-03-14T04:11:15.681Z,8.57
2018-03-14T04:13:47.054Z,8.51
2018-03-14T04:16:17.897Z,8.51
2018-03-14T04:18:48.815Z,8.35
2018-03-14T04:21:19.740Z,8.39
2018-03-14T04:23:50.757Z,8.37
2018-03-14T04:26:21.692Z,8.37
2018-03-14T04:28:53.080Z,8.36
2018-03-14T04:31:24.717Z,8.37
2018-03-14T04:33:55.387Z,8.31
2018-03-14T04:36:26.668Z,8.28
2018-03-14T04:38:57.529Z,8.28
2018-03-14T04:41:27.928Z,8.29
2018-03-14T04:43:58.613Z,8.22
2018-03-14T04:46:29.409Z,8.10
2018-03-14T04:49:00.456Z,8.10
2018-03-14T04:51:34.129Z,8.09
2018-03-14T04:54:03.313Z,8.09
2018-03-14T04:56:33.635Z,8.11
2018-03-14T04:59:03.988Z,8.07
2018-03-14T05:01:34.803Z,7.97
2018-03-14T05:04:05.463Z,7.91
2018-03-14T05:06:36.333Z,7.93
2018-03-14T05:09:07.909Z,7.85
2018-03-14T05:11:38.497Z,7.65
2018-03-14T05:14:09.368Z,7.60
2018-03-14T05:16:40.709Z,7.52
2018-03-14T05:19:11.414Z,7.36
2018-03-14T05:21:42.670Z,7.33
2018-03-14T05:24:13.436Z,7.31
2018-03-14T05:26:44.342Z,7.25
2018-03-14T05:29:15.497Z,7.25
2018-03-14T05:31:46.063Z,7.15
2018-03-14T05:34:16.992Z,7.07
2018-03-14T05:36:47.551Z,7.12
2018-03-14T05:39:18.448Z,7.14
2018-03-14T05:41:48.863Z,7.03
2018-03-14T05:44:19.502Z,7.05
2018-03-14T05:46:50.386Z,7.10
2018-03-14T05:49:21.752Z,7.07
2018-03-14T05:51:51.932Z,7.07
2018-03-14T05:54:22.538Z,7.03
2018-03-14T05:56:53.331Z,7.04
2018-03-14T05:59:24.703Z,7.08
2018-03-14T06:01:55.362Z,7.09
2018-03-14T06:04:26.359Z,7.14
2018-03-14T06:06:58.008Z,7.17
2018-03-14T06:09:27.873Z,7.23
2018-03-14T06:11:58.443Z,7.23
2018-03-14T06:14:29.814Z,7.06
2018-03-14T06:17:00.426Z,6.90
2018-03-14T06:19:31.397Z,6.88
2018-03-14T06:22:02.325Z,6.89
2018-03-14T06:24:33.946Z,6.83
2018-03-14T06:27:04.537Z,6.82
2018-03-14T06:29:35.476Z,6.88
2018-03-14T06:32:06.037Z,6.92
2018-03-14T06:34:36.662Z,6.85
2018-03-14T06:37:07.381Z,6.87
2018-03-14T06:39:38.362Z,6.85
2018-03-14T06:42:09.649Z,6.92
2018-03-14T06:44:40.466Z,6.81
2018-03-14T06:47:11.341Z,6.78
2018-03-14T06:49:42.007Z,6.83
2018-03-14T06:52:12.596Z,6.76
2018-03-14T06:54:43.421Z,6.75
2018-03-14T06:57:14.655Z,6.83
2018-03-14T06:59:56.403Z,6.66
2018-03-14T07:02:36.755Z,6.61
2018-03-14T07:05:16.892Z,6.46
2018-03-14T07:07:45.985Z,6.36
2018-03-14T07:10:14.961Z,6.35
2018-03-14T07:12:43.978Z,6.37
2018-03-14T07:15:13.014Z,6.31
2018-03-14T07:17:42.598Z,6.90
2018-03-14T07:20:13.159Z,6.73
2018-03-14T07:22:42.975Z,7.28
2018-03-14T07:25:12.184Z,8.03
2018-03-14T07:27:42.172Z,7.76
2018-03-14T07:30:11.795Z,8.07
2018-03-14T07:32:41.849Z,8.51
2018-03-14T07:35:11.866Z,7.34
2018-03-14T07:37:43.038Z,6.94
2018-03-14T07:40:12.288Z,6.53
2018-03-14T07:42:41.528Z,6.27
2018-03-14T07:45:10.610Z,6.13
2018-03-14T07:47:39.721Z,6.18
2018-03-14T07:50:09.128Z,6.22
2018-03-14T07:52:38.285Z,6.22
2018-03-14T07:55:07.433Z,6.19
2018-03-14T07:57:36.572Z,6.32
2018-03-14T08:00:07.052Z,6.32
2018-03-14T08:02:37.675Z,6.39
2018-03-14T08:05:08.821Z,6.41
2018-03-14T08:07:39.716Z,6.30
2018-03-14T08:10:10.188Z,6.35
2018-03-14T08:12:41.082Z,6.43
2018-03-14T08:15:11.599Z,6.83
2018-03-14T08:17:43.020Z,6.79
2018-03-14T08:20:13.854Z,6.73
2018-03-14T08:22:44.680Z,6.63
2018-03-14T08:25:16.008Z,6.65
2018-03-14T08:27:48.186Z,6.74
2018-03-14T08:30:17.372Z,6.62
2018-03-14T08:32:47.956Z,6.60
2018-03-14T08:35:18.651Z,6.46
2018-03-14T08:37:49.360Z,6.41
2018-03-14T08:40:19.905Z,6.34
2018-03-14T08:42:50.740Z,6.45
2018-03-14T08:45:21.598Z,6.46
2018-03-14T08:47:52.152Z,6.41
2018-03-14T08:50:22.748Z,6.37
2018-03-14T08:52:53.595Z,6.39
2018-03-14T08:55:24.066Z,6.45
2018-03-14T08:57:55.665Z,6.50
2018-03-14T09:00:26.277Z,6.43
2018-03-14T09:02:56.934Z,6.44
2018-03-14T09:05:27.732Z,6.48
2018-03-14T09:07:58.392Z,6.38
2018-03-14T09:10:28.930Z,6.32
2018-03-14T09:12:59.790Z,6.36
2018-03-14T09:15:30.744Z,6.48
2018-03-14T09:18:01.285Z,6.42
2018-03-14T09:20:31.839Z,6.35
2018-03-14T09:23:17.579Z,6.29
2018-03-14T09:25:46.909Z,6.27
2018-03-14T09:28:16.045Z,6.27
2018-03-14T09:30:45.218Z,6.27
2018-03-14T09:33:14.353Z,6.26
2018-03-14T09:35:43.480Z,6.22
2018-03-14T09:38:12.640Z,6.19
2018-03-14T09:40:41.987Z,6.21
2018-03-14T09:43:11.088Z,6.29
2018-03-14T09:45:40.458Z,6.36
2018-03-14T09:48:10.997Z,6.48
2018-03-14T09:50:41.752Z,6.56
2018-03-14T09:53:12.644Z,6.66
2018-03-14T09:55:44.082Z,6.75
2018-03-14T09:58:14.752Z,6.74
2018-03-14T10:00:45.357Z,6.79
2018-03-14T10:03:16.993Z,6.74
2018-03-14T10:05:48.469Z,6.78
2018-03-14T10:08:18.960Z,6.77
2018-03-14T10:10:49.682Z,6.63
2018-03-14T10:13:21.033Z,6.58
2018-03-14T10:15:51.398Z,6.45
2018-03-14T10:18:21.925Z,6.32
2018-03-14T10:20:52.785Z,6.36
2018-03-14T10:23:24.046Z,6.44
2018-03-14T10:25:54.829Z,6.32
2018-03-14T10:28:25.726Z,6.40
2018-03-14T10:30:56.736Z,6.46
2018-03-14T10:33:27.992Z,6.39
2018-03-14T10:35:58.699Z,6.45
2018-03-14T10:38:29.971Z,6.51
2018-03-14T10:41:00.332Z,6.55
2018-03-14T10:43:30.867Z,6.46
2018-03-14T10:46:01.804Z,6.47
2018-03-14T10:48:32.731Z,6.49
2018-03-14T10:51:04.234Z,6.57
2018-03-14T10:53:34.048Z,6.57
2018-03-14T10:56:04.861Z,6.49
2018-03-14T10:58:35.776Z,6.56
2018-03-14T11:01:10.809Z,6.67
2018-03-14T11:03:44.804Z,6.68
2018-03-14T11:06:14.073Z,6.67
2018-03-14T11:08:43.188Z,6.72
2018-03-14T11:11:12.294Z,6.79
2018-03-14T11:13:42.163Z,6.85
2018-03-14T11:16:12.702Z,6.84
2018-03-14T11:18:43.420Z,6.88
2018-03-14T11:21:13.924Z,6.86
2018-03-14T11:23:44.841Z,6.86
2018-03-14T11:26:15.640Z,6.81
2018-03-14T11:28:46.275Z,6.93
2018-03-14T11:31:18.557Z,6.93
2018-03-14T11:33:47.761Z,6.93
2018-03-14T11:36:18.221Z,7.02
2018-03-14T11:38:48.905Z,7.12
2018-03-14T11:41:19.693Z,7.16
2018-03-14T11:43:51.075Z,7.14
2018-03-14T11:46:21.628Z,7.11
2018-03-14T11:48:52.116Z,7.15
2018-03-14T11:51:22.787Z,7.18
2018-03-14T11:53:53.733Z,7.21
2018-03-14T11:56:25.139Z,7.21
2018-03-14T11:58:55.626Z,7.21
2018-03-14T12:01:26.895Z,7.24
2018-03-14T12:03:57.359Z,7.24
2018-03-14T12:06:27.892Z,7.25
2018-03-14T12:08:58.732Z,7.29
2018-03-14T12:11:30.045Z,7.35
2018-03-14T12:14:00.743Z,7.32
2018-03-14T12:16:32.065Z,7.38
2018-03-14T12:19:02.002Z,7.37
2018-03-14T12:21:32.690Z,7.41
2018-03-14T12:24:03.766Z,7.37
2018-03-14T12:26:35.053Z,7.44
2018-03-14T12:29:05.797Z,7.42
2018-03-14T12:31:36.349Z,7.37
2018-03-14T12:34:06.933Z,7.32
2018-03-14T12:36:37.081Z,7.36
2018-03-14T12:39:07.480Z,7.34
2018-03-14T12:41:38.982Z,7.38
2018-03-14T12:44:09.697Z,7.36
2018-03-14T12:46:40.653Z,7.40
2018-03-14T12:49:12.107Z,7.47
2018-03-14T12:51:42.779Z,7.44
2018-03-14T12:54:13.745Z,7.47
2018-03-14T12:56:45.080Z,7.41
2018-03-14T12:59:15.761Z,7.36
2018-03-14T13:01:47.231Z,7.36
2018-03-14T13:04:17.821Z,7.40
2018-03-14T13:06:48.732Z,7.26
2018-03-14T13:09:19.395Z,7.29
2018-03-14T13:11:49.979Z,7.32
2018-03-14T13:14:20.974Z,7.24
2018-03-14T13:16:51.743Z,7.35
2018-03-14T13:19:22.768Z,7.42
2018-03-14T13:21:53.163Z,7.37
2018-03-14T13:24:23.817Z,7.31
2018-03-14T13:26:54.724Z,7.41
2018-03-14T13:29:26.059Z,7.45
2018-03-14T13:31:55.975Z,7.48
2018-03-14T13:34:26.019Z,7.53
2018-03-14T13:36:57.086Z,7.46
2018-03-14T13:39:27.410Z,7.44
2018-03-14T13:41:58.328Z,7.45
2018-03-14T13:44:29.142Z,7.51
2018-03-14T13:47:00.732Z,7.56
2018-03-14T13:49:31.968Z,7.67
2018-03-14T13:52:02.753Z,7.61
2018-03-14T13:54:33.653Z,7.65
2018-03-14T13:57:05.120Z,7.62
2018-03-14T13:59:35.741Z,7.64
2018-03-14T14:02:06.532Z,7.59
2018-03-14T14:04:38.075Z,7.61
2018-03-14T14:07:08.835Z,7.61
2018-03-14T14:09:39.723Z,7.58
2018-03-14T14:12:11.040Z,7.56
2018-03-14T14:14:41.444Z,7.51
2018-03-14T14:17:13.121Z,7.46
2018-03-14T14:19:43.790Z,7.36
2018-03-14T14:22:15.101Z,7.21
2018-03-14T14:24:45.634Z,7.23
2018-03-14T14:27:17.108Z,7.25
2018-03-14T14:29:47.767Z,7.24
2018-03-14T14:32:19.320Z,7.29
2018-03-14T14:34:49.902Z,7.30
2018-03-14T14:37:20.429Z,7.32
2018-03-14T14:39:51.064Z,7.35
2018-03-14T14:42:20.902Z,7.43
2018-03-14T14:44:51.751Z,7.39
2018-03-14T14:47:23.199Z,7.42
2018-03-14T14:49:53.860Z,7.43
2018-03-14T14:52:24.886Z,7.35
2018-03-14T14:54:55.751Z,7.24
2018-03-14T14:57:27.160Z,7.22
2018-03-14T14:59:57.646Z,7.27
2018-03-14T15:02:28.365Z,7.21
2018-03-14T15:04:58.962Z,7.30
2018-03-14T15:07:29.965Z,7.35
2018-03-14T15:10:00.449Z,7.35
2018-03-14T15:12:31.212Z,7.39
2018-03-14T15:15:00.817Z,7.42
2018-03-14T15:17:31.780Z,7.45
2018-03-14T15:20:02.478Z,7.47
2018-03-14T15:22:33.500Z,7.36
2018-03-14T15:25:04.904Z,7.30
2018-03-14T15:27:35.839Z,7.39
2018-03-14T15:30:06.842Z,7.46
2018-03-14T15:32:37.938Z,7.49
2018-03-14T15:35:08.821Z,7.47
2018-03-14T15:37:39.462Z,7.51
2018-03-14T15:40:10.172Z,7.30
2018-03-14T15:42:40.955Z,7.46
2018-03-14T15:45:11.881Z,7.45
2018-03-14T15:47:43.198Z,7.56
2018-03-14T15:50:13.921Z,7.45
2018-03-14T15:52:44.885Z,7.46
2018-03-14T15:55:15.852Z,7.51
2018-03-14T15:57:46.975Z,7.53
2018-03-14T16:00:17.859Z,7.53
2018-03-14T16:02:48.966Z,7.55
2018-03-14T16:05:19.836Z,7.50
2018-03-14T16:07:51.071Z,7.50
2018-03-14T16:10:21.129Z,7.51
2018-03-14T16:12:51.972Z,7.44
2018-03-14T16:15:22.899Z,7.43
2018-03-14T16:17:54.211Z,7.43
2018-03-14T16:20:24.999Z,7.41
2018-03-14T16:22:55.986Z,7.43
2018-03-14T16:25:26.869Z,7.34
2018-03-14T16:27:57.951Z,7.35
2018-03-14T16:30:28.503Z,7.30
2018-03-14T16:32:59.293Z,7.30
2018-03-14T16:35:30.062Z,7.28
2018-03-14T16:38:00.508Z,7.29
2018-03-14T16:40:37.518Z,7.27
2018-03-14T16:43:06.843Z,7.28
2018-03-14T16:45:36.176Z,7.29
2018-03-14T16:48:05.465Z,7.30
2018-03-14T16:50:34.825Z,7.30
2018-03-14T16:53:05.470Z,7.23
2018-03-14T16:55:36.245Z,7.18
2018-03-14T16:58:06.192Z,7.13
2018-03-14T17:00:37.078Z,7.12
2018-03-14T17:03:07.827Z,7.05
2018-03-14T17:05:39.048Z,6.97
2018-03-14T17:08:09.803Z,6.94
2018-03-14T17:10:40.460Z,6.92
2018-03-14T17:13:11.188Z,6.90
2018-03-14T17:15:41.934Z,6.93
2018-03-14T17:18:12.912Z,6.91
2018-03-14T17:20:43.906Z,6.90
2018-03-14T17:23:14.755Z,6.98
2018-03-14T17:25:46.253Z,6.99
2018-03-14T17:28:16.975Z,6.93
2018-03-14T17:30:47.929Z,6.90
2018-03-14T17:33:18.894Z,6.86
2018-03-14T17:35:49.932Z,6.88
2018-03-14T17:38:20.829Z,6.78
2018-03-14T17:40:51.896Z,6.82
2018-03-14T17:43:22.861Z,6.83
2018-03-14T17:45:53.884Z,6.80
2018-03-14T17:48:24.847Z,6.78
2018-03-14T17:50:55.505Z,6.81
2018-03-14T17:53:26.173Z,6.77
2018-03-14T17:55:56.210Z,6.71
2018-03-14T17:58:27.123Z,6.75
2018-03-14T18:00:57.951Z,6.80
2018-03-14T18:03:28.904Z,6.74
2018-03-14T18:06:00.692Z,6.75
2018-03-14T18:08:31.318Z,6.78
2018-03-14T18:11:02.119Z,6.80
2018-03-14T18:13:32.877Z,6.77
2018-03-14T18:16:03.540Z,6.79
2018-03-14T18:18:34.381Z,6.72
2018-03-14T18:21:05.330Z,6.66
2018-03-14T18:23:36.086Z,6.67
2018-03-14T18:26:06.903Z,6.66
2018-03-14T18:28:38.071Z,6.57
2018-03-14T18:31:09.126Z,6.43
2018-03-14T18:33:39.893Z,6.34
2018-03-14T18:36:10.938Z,6.27
2018-03-14T18:38:41.541Z,6.25
2018-03-14T18:41:12.332Z,6.27
2018-03-14T18:43:44.911Z,6.34
2018-03-14T18:46:15.579Z,6.33
2018-03-14T18:48:45.623Z,6.36
2018-03-14T18:51:17.182Z,6.32
2018-03-14T18:53:48.745Z,6.29
2018-03-14T18:56:19.272Z,6.25
2018-03-14T18:58:49.330Z,6.11
2018-03-14T19:01:19.439Z,6.01
2018-03-14T19:03:50.277Z,5.89
2018-03-14T19:06:21.172Z,5.92
2018-03-14T19:08:52.024Z,5.90
2018-03-14T19:11:24.011Z,5.75
2018-03-14T19:13:54.505Z,5.88
2018-03-14T19:16:26.675Z,5.95
2018-03-14T19:18:56.581Z,6.00
2018-03-14T19:21:27.249Z,6.08
2018-03-14T19:23:57.986Z,6.15
2018-03-14T19:26:28.980Z,6.17
2018-03-14T19:28:59.851Z,6.24
2018-03-14T19:31:30.683Z,6.25
2018-03-14T19:34:01.202Z,6.30
2018-03-14T19:36:32.161Z,6.34
2018-03-14T19:39:02.965Z,6.28
2018-03-14T19:41:34.027Z,6.30
2018-03-14T19:44:05.460Z,6.36
2018-03-14T19:46:36.420Z,6.40
2018-03-14T19:49:07.174Z,6.43
2018-03-14T19:51:37.252Z,6.44
2018-03-14T19:54:08.105Z,6.47
2018-03-14T19:56:39.129Z,6.49
2018-03-14T19:59:10.107Z,6.51
2018-03-14T20:01:41.032Z,6.52
2018-03-14T20:04:10.991Z,6.53
2018-03-14T20:06:42.070Z,6.52
2018-03-14T20:09:12.982Z,6.54
2018-03-14T20:11:44.104Z,6.54
2018-03-14T20:14:14.944Z,6.52
2018-03-14T20:16:45.954Z,6.51
2018-03-14T20:19:17.356Z,6.51
2018-03-14T20:21:48.147Z,6.52
2018-03-14T20:24:18.915Z,6.52
2018-03-14T20:26:50.161Z,6.52
2018-03-14T20:29:20.868Z,6.52
2018-03-14T20:31:51.660Z,6.51
2018-03-14T20:34:22.381Z,6.49
2018-03-14T20:36:53.256Z,6.49
2018-03-14T20:39:24.059Z,6.50
2018-03-14T20:41:54.976Z,6.50
2018-03-14T20:44:25.957Z,6.49
2018-03-14T20:46:59.668Z,6.49
2018-03-14T20:49:29.144Z,6.48
2018-03-14T20:51:58.608Z,6.48
2018-03-14T20:54:29.319Z,6.49
2018-03-14T20:57:00.344Z,6.50
2018-03-14T20:59:30.331Z,6.49
2018-03-14T21:02:01.132Z,6.50
2018-03-14T21:04:31.711Z,6.51
2018-03-14T21:07:02.265Z,6.52
2018-03-14T21:09:33.978Z,6.53
2018-03-14T21:12:04.659Z,6.54
2018-03-14T21:14:35.540Z,6.52
2018-03-14T21:17:06.217Z,6.51
2018-03-14T21:19:36.910Z,6.51
2018-03-14T21:22:07.824Z,6.50
2018-03-14T21:24:38.402Z,6.50
2018-03-14T21:27:09.042Z,6.49
2018-03-14T21:29:40.441Z,6.50
2018-03-14T21:32:11.066Z,6.50
2018-03-14T21:34:41.450Z,6.50
2018-03-14T21:37:12.104Z,6.50
2018-03-14T21:39:42.396Z,6.51
2018-03-14T21:42:13.170Z,6.52
2018-03-14T21:44:43.826Z,6.52
2018-03-14T21:47:14.320Z,6.51
2018-03-14T21:49:44.885Z,6.51
2018-03-14T21:52:15.764Z,6.49
2018-03-14T21:54:46.269Z,6.49
2018-03-14T21:57:19.014Z,6.48
2018-03-14T21:59:48.164Z,6.47
2018-03-14T22:02:18.084Z,6.45
2018-03-14T22:04:48.757Z,6.44
2018-03-14T22:07:19.779Z,6.43
2018-03-14T22:09:51.145Z,6.43
2018-03-14T22:12:21.829Z,6.43
2018-03-14T22:14:52.797Z,6.39
2018-03-14T22:17:24.096Z,6.39
2018-03-14T22:19:56.895Z,6.38
2018-03-14T22:22:26.028Z,6.38
2018-03-14T22:24:56.309Z,6.39
2018-03-14T22:27:26.963Z,6.40
2018-03-14T22:29:57.808Z,6.40
2018-03-14T22:32:28.793Z,6.41
2018-03-14T22:35:00.102Z,6.42
2018-03-14T22:37:30.489Z,6.41
2018-03-14T22:40:01.126Z,6.42
2018-03-14T22:42:32.124Z,6.42
2018-03-14T22:45:02.818Z,6.42
2018-03-14T22:47:33.935Z,6.43
2018-03-14T22:50:04.114Z,6.44
2018-03-14T22:52:35.859Z,6.44
2018-03-14T22:55:06.665Z,6.43
2018-03-14T22:57:38.140Z,6.43
2018-03-14T23:00:08.526Z,6.44
2018-03-14T23:02:40.101Z,6.43
2018-03-14T23:05:10.776Z,6.43
2018-03-14T23:07:41.753Z,6.43
2018-03-14T23:10:13.039Z,6.43
2018-03-14T23:12:43.724Z,6.41
2018-03-14T23:15:15.001Z,6.42
2018-03-14T23:17:45.797Z,6.41
2018-03-14T23:20:16.708Z,6.42
2018-03-14T23:22:48.105Z,6.41
2018-03-14T23:25:18.668Z,6.40
2018-03-14T23:27:50.245Z,6.38
2018-03-14T23:30:20.853Z,6.38
2018-03-14T23:32:51.833Z,6.37
2018-03-14T23:35:23.147Z,6.36
2018-03-14T23:37:53.783Z,6.35
2018-03-14T23:40:24.675Z,6.34
2018-03-14T23:42:56.190Z,6.34
2018-03-14T23:45:26.780Z,6.32
2018-03-14T23:47:57.800Z,6.30
2018-03-14T23:50:28.754Z,6.31
2018-03-14T23:53:00.124Z,6.31
2018-03-14T23:55:30.506Z,6.31
2018-03-14T23:58:01.430Z,6.30
